Lancaster, New York
Current Conditions -  °F | °C
As of 6:54 PM on Monday 22 Dec 2014 (Local Time) from KBUF Reporting Station
Clear Clear  
Wind Chill: 30°   Ceiling: Unl
Heat Index: 36°   Visibility: 10mi
Dew Point: 27°   Wind: 8mph
Humidity: 70%   Direction: 100°E
Pressure: 30.06"   Gusts: NA
Location:  42.9°N, 78.67°W
Report Text: KBUF 222354Z 10007KT 10SM CLR 02/M03 A3006 RMK AO2 SLP186 T00221028 10044 20022 55003
Loading
Personal Weather Stations






























Interactive Weather Map New forecast layout! Learn more

10-Day Weather Forecast

Advertisements
Track Severe Weather on mobile